Time;durP1;ratioP1;P1;durP2;ratioP2;P2;SDS_P1;SDS_P2;PMS_P1;PMS_P2;Temp;Humidity;BMP_temperature;BMP_pressure;BME280_temperature;BME280_humidity;BME280_pressure;Samples;Min_cycle;Max_cycle;Signal;HPM_P1;HPM_P2
2023/04/16 00:00:34;;;;;;;58.05;24.02;;;;;;;7.18;100.00;102125.59;5002867;28;20042;-77
2023/04/16 00:03:01;;;;;;;53.63;23.77;;;;;;;7.16;100.00;102135.09;4981672;28;20054;-78
2023/04/16 00:05:30;;;;;;;48.38;22.65;;;;;;;7.10;100.00;102142.75;4948757;28;20064;-78
2023/04/16 00:07:57;;;;;;;67.25;25.50;;;;;;;7.05;100.00;102138.16;4982441;28;20047;-75
2023/04/16 00:10:25;;;;;;;66.40;24.80;;;;;;;6.99;100.00;102136.19;4987802;28;20030;-78
2023/04/16 00:12:52;;;;;;;55.13;23.45;;;;;;;6.94;100.00;102132.53;5007407;28;20061;-78
2023/04/16 00:15:19;;;;;;;64.45;26.45;;;;;;;6.89;100.00;102134.94;4983486;28;20806;-77
2023/04/16 00:17:46;;;;;;;68.10;26.23;;;;;;;6.83;100.00;102133.00;5002976;28;20045;-77
2023/04/16 00:20:14;;;;;;;57.50;25.80;;;;;;;6.81;100.00;102131.16;4957601;28;20058;-78
2023/04/16 00:22:41;;;;;;;67.50;28.73;;;;;;;6.80;100.00;102142.44;4945062;28;20046;-78
2023/04/16 00:25:08;;;;;;;68.18;26.35;;;;;;;6.78;100.00;102138.88;4996050;28;20061;-78
2023/04/16 00:27:36;;;;;;;73.32;31.23;;;;;;;6.80;100.00;102145.06;4987634;28;20054;-78
2023/04/16 00:30:03;;;;;;;64.00;28.20;;;;;;;6.81;100.00;102141.63;4982983;28;20420;-78
2023/04/16 00:32:31;;;;;;;69.18;28.83;;;;;;;6.84;100.00;102141.72;5005096;28;20041;-76
2023/04/16 00:34:58;;;;;;;73.50;31.48;;;;;;;6.87;100.00;102141.88;4939212;28;20086;-79
2023/04/16 00:37:25;;;;;;;90.80;35.35;;;;;;;6.90;100.00;102141.06;4941451;28;20405;-77
2023/04/16 00:39:53;;;;;;;91.80;34.58;;;;;;;6.92;100.00;102139.41;4998302;28;20124;-76
2023/04/16 00:42:20;;;;;;;83.38;34.97;;;;;;;6.95;100.00;102142.16;4985195;28;20057;-76
2023/04/16 00:44:47;;;;;;;83.20;32.58;;;;;;;6.96;100.00;102136.97;5003795;28;20049;-76
2023/04/16 00:47:15;;;;;;;98.82;35.55;;;;;;;6.98;100.00;102145.78;4967993;28;20053;-77
2023/04/16 00:49:43;;;;;;;79.85;31.73;;;;;;;6.99;100.00;102147.59;5003174;28;20042;-77
2023/04/16 00:52:10;;;;;;;76.40;32.25;;;;;;;6.99;100.00;102154.53;4973264;28;20056;-78
2023/04/16 00:54:38;;;;;;;106.03;35.35;;;;;;;6.97;100.00;102157.09;4928398;28;20105;-78
2023/04/16 00:57:06;;;;;;;91.68;34.00;;;;;;;6.97;100.00;102159.72;4990057;28;20061;-78
2023/04/16 00:59:33;;;;;;;104.63;37.15;;;;;;;6.96;100.00;102155.31;4992859;28;20077;-77
2023/04/16 01:02:01;;;;;;;79.10;34.05;;;;;;;6.96;100.00;102160.56;4991424;28;20057;-78
2023/04/16 01:04:29;;;;;;;86.72;34.10;;;;;;;6.96;100.00;102157.94;4993349;28;20053;-78
2023/04/16 01:06:57;;;;;;;81.38;32.45;;;;;;;6.96;100.00;102157.94;4982196;28;20417;-78
2023/04/16 01:09:24;;;;;;;115.25;34.33;;;;;;;6.98;100.00;102155.41;4945365;28;20517;-78
2023/04/16 01:11:51;;;;;;;127.13;34.95;;;;;;;6.98;100.00;102155.41;4975156;28;20084;-77
2023/04/16 01:14:19;;;;;;;106.70;35.17;;;;;;;6.96;100.00;102157.06;4970982;28;20229;-78
2023/04/16 01:16:46;;;;;;;85.18;34.25;;;;;;;6.95;100.00;102164.00;4967221;28;20057;-78
2023/04/16 01:19:13;;;;;;;79.07;32.78;;;;;;;6.94;100.00;102163.97;4993392;28;20045;-78
2023/04/16 01:21:40;;;;;;;85.30;35.17;;;;;;;6.91;100.00;102164.72;4975239;28;20440;-78
2023/04/16 01:24:08;;;;;;;83.75;34.67;;;;;;;6.90;100.00;102165.59;4989079;28;20528;-78
2023/04/16 01:26:35;;;;;;;91.35;35.88;;;;;;;6.88;100.00;102172.50;4940283;28;20054;-77
2023/04/16 01:29:02;;;;;;;152.95;40.15;;;;;;;6.86;100.00;102170.63;4976687;28;20054;-77
2023/04/16 01:31:29;;;;;;;95.05;34.85;;;;;;;6.85;100.00;102171.47;4990390;28;20164;-77
2023/04/16 01:34:08;;;;;;;144.75;40.45;;;;;;;6.82;100.00;102174.84;4985514;28;20050;-77
2023/04/16 01:36:35;;;;;;;157.40;39.22;;;;;;;6.80;100.00;102172.16;4964612;28;20046;-77
2023/04/16 01:39:03;;;;;;;225.82;42.08;;;;;;;6.79;100.00;102166.88;4986872;28;20080;-77
2023/04/16 01:41:30;;;;;;;85.20;30.75;;;;;;;6.78;100.00;102179.06;4947140;28;20480;-78
2023/04/16 01:43:58;;;;;;;283.63;46.67;;;;;;;6.75;100.00;102168.47;4973423;28;20496;-78
2023/04/16 01:46:32;;;;;;;131.50;32.42;;;;;;;6.76;100.00;102170.25;4972706;28;20741;-77
2023/04/16 01:49:01;;;;;;;99.90;31.58;;;;;;;6.75;100.00;102176.34;5005608;28;20042;-77
2023/04/16 01:51:28;;;;;;;175.30;35.25;;;;;;;6.75;100.00;102172.84;4960880;28;20061;-78
2023/04/16 01:53:57;;;;;;;154.70;31.25;;;;;;;6.73;100.00;102170.16;4988984;28;20130;-77
2023/04/16 01:56:24;;;;;;;127.75;30.85;;;;;;;6.71;100.00;102160.41;4951017;28;20053;-78
2023/04/16 01:58:52;;;;;;;96.07;28.60;;;;;;;6.69;100.00;102170.88;4985303;28;20402;-78
2023/04/16 02:01:20;;;;;;;101.50;29.40;;;;;;;6.67;100.00;102161.13;4984059;28;20050;-77
2023/04/16 02:03:48;;;;;;;70.00;25.55;;;;;;;6.66;100.00;102168.09;4997564;28;20054;-78
2023/04/16 02:06:16;;;;;;;81.22;28.70;;;;;;;6.63;100.00;102166.28;4983999;28;20045;-77
2023/04/16 02:08:43;;;;;;;56.17;26.25;;;;;;;6.62;100.00;102167.09;4998191;28;20378;-77
2023/04/16 02:11:10;;;;;;;67.40;26.52;;;;;;;6.60;100.00;102168.75;4943889;28;20053;-77
2023/04/16 02:13:38;;;;;;;52.72;25.58;;;;;;;6.59;100.00;102163.44;5007059;28;20052;-78
2023/04/16 02:16:05;;;;;;;64.78;26.20;;;;;;;6.56;100.00;102156.38;4983768;28;20068;-77
2023/04/16 02:18:40;;;;;;;75.82;27.85;;;;;;;6.54;100.00;102167.59;4989160;28;20046;-77
2023/04/16 02:21:08;;;;;;;71.18;27.55;;;;;;;6.53;100.00;102168.44;4975526;28;20053;-77
2023/04/16 02:23:36;;;;;;;66.30;28.33;;;;;;;6.51;100.00;102175.34;4958675;28;20054;-77
2023/04/16 02:26:03;;;;;;;52.72;25.63;;;;;;;6.47;100.00;102168.19;4981709;28;20050;-77
2023/04/16 02:28:31;;;;;;;55.33;26.15;;;;;;;6.45;100.00;102186.47;4938415;28;20046;-77
2023/04/16 02:30:58;;;;;;;53.90;24.83;;;;;;;6.43;100.00;102182.88;4973184;28;20510;-77
2023/04/16 02:33:30;;;;;;;52.58;25.42;;;;;;;6.41;100.00;102179.31;4982961;28;20050;-78
2023/04/16 02:36:02;;;;;;;54.22;25.75;;;;;;;6.38;100.00;102180.06;4980821;28;20046;-77
2023/04/16 02:38:29;;;;;;;64.22;28.02;;;;;;;6.37;100.00;102180.00;4960572;28;20081;-78
2023/04/16 02:40:57;;;;;;;66.68;26.90;;;;;;;6.34;100.00;102175.53;4965551;28;20050;-78
2023/04/16 02:43:25;;;;;;;52.47;24.17;;;;;;;6.32;100.00;102187.66;4917226;28;20760;-78
2023/04/16 02:45:52;;;;;;;54.85;25.67;;;;;;;6.29;100.00;102181.41;4982681;28;20073;-77
2023/04/16 02:48:19;;;;;;;49.90;24.13;;;;;;;6.27;100.00;102181.34;4965439;28;20046;-78
2023/04/16 02:50:46;;;;;;;53.75;24.42;;;;;;;6.25;100.00;102185.63;4955833;28;20050;-78
2023/04/16 02:53:14;;;;;;;59.40;25.15;;;;;;;6.23;100.00;102180.31;4951764;28;20066;-78
2023/04/16 02:55:51;;;;;;;50.05;24.08;;;;;;;6.23;100.00;102182.03;4982812;28;20704;-78
2023/04/16 02:58:23;;;;;;;49.35;24.30;;;;;;;6.22;100.00;102189.00;4912726;28;20066;-78
2023/04/16 03:00:51;;;;;;;49.05;24.00;;;;;;;6.23;100.00;102179.44;4970430;28;20553;-77
2023/04/16 03:03:21;;;;;;;47.67;24.42;;;;;;;6.23;100.00;102177.69;4980076;28;20042;-78
2023/04/16 03:05:48;;;;;;;58.25;26.02;;;;;;;6.25;100.00;102190.84;4950940;28;20059;-77
2023/04/16 03:08:15;;;;;;;46.45;24.10;;;;;;;6.25;100.00;102183.88;4937992;28;20588;-77
2023/04/16 03:10:43;;;;;;;51.20;25.20;;;;;;;6.27;100.00;102185.69;4967488;28;20043;-77
2023/04/16 03:13:10;;;;;;;50.15;25.02;;;;;;;6.28;100.00;102179.63;4919200;28;20058;-77
2023/04/16 03:15:37;;;;;;;48.03;24.75;;;;;;;6.29;100.00;102186.63;4957801;28;20062;-77
2023/04/16 03:18:05;;;;;;;52.58;24.77;;;;;;;6.29;100.00;102186.63;4964542;28;20469;-77
2023/04/16 03:20:32;;;;;;;58.00;25.15;;;;;;;6.31;100.00;102190.22;4962352;28;20047;-77
2023/04/16 03:23:00;;;;;;;62.38;25.27;;;;;;;6.34;100.00;102195.59;4960405;28;20046;-78
2023/04/16 03:25:27;;;;;;;47.08;24.00;;;;;;;6.37;100.00;102196.63;4952863;28;20691;-77
2023/04/16 03:27:55;;;;;;;64.70;26.77;;;;;;;6.43;100.00;102203.84;4963955;28;20059;-78
2023/04/16 03:30:23;;;;;;;54.25;25.60;;;;;;;6.48;100.00;102201.41;4920078;28;20046;-78
2023/04/16 03:32:50;;;;;;;55.50;24.77;;;;;;;6.53;100.00;102207.72;4968734;28;20139;-77
2023/04/16 03:35:18;;;;;;;59.67;25.48;;;;;;;6.58;100.00;102207.09;4980787;28;20062;-78
2023/04/16 03:37:45;;;;;;;51.85;24.27;;;;;;;6.64;100.00;102209.06;4981406;28;20116;-78
2023/04/16 03:40:13;;;;;;;57.10;25.67;;;;;;;6.67;100.00;102205.66;4970477;28;22347;-78
2023/04/16 03:42:41;;;;;;;46.47;24.15;;;;;;;6.71;100.00;102202.34;4981893;28;20054;-78
2023/04/16 03:45:09;;;;;;;68.38;27.08;;;;;;;6.75;100.00;102217.38;4950614;28;20062;-77
2023/04/16 03:47:37;;;;;;;61.30;26.10;;;;;;;6.77;100.00;102213.97;4957968;28;20454;-78
2023/04/16 03:50:05;;;;;;;55.47;25.73;;;;;;;6.79;100.00;102216.66;4983573;28;20057;-78
2023/04/16 03:52:32;;;;;;;56.75;23.83;;;;;;;6.81;100.00;102210.63;4984764;28;20046;-78
2023/04/16 03:55:02;;;;;;;63.45;26.42;;;;;;;6.85;100.00;102222.16;4993570;28;20054;-77
2023/04/16 03:57:30;;;;;;;51.20;23.80;;;;;;;6.85;100.00;102209.03;4966590;28;20062;-78
2023/04/16 04:00:04;;;;;;;63.13;25.33;;;;;;;6.86;100.00;102213.44;4948845;28;20046;-77
2023/04/16 04:02:40;;;;;;;54.17;25.70;;;;;;;6.85;100.00;102209.03;4964073;28;20070;-78
2023/04/16 04:05:14;;;;;;;53.05;24.77;;;;;;;6.85;100.00;102211.66;4973020;28;20895;-77
2023/04/16 04:07:42;;;;;;;47.85;23.58;;;;;;;6.85;100.00;102211.66;4967044;28;20050;-77
2023/04/16 04:10:10;;;;;;;55.67;25.58;;;;;;;6.84;100.00;102220.34;4973462;28;20425;-78
2023/04/16 04:12:40;;;;;;;54.83;24.23;;;;;;;6.82;100.00;102211.53;4955081;28;20069;-76
2023/04/16 04:15:09;;;;;;;48.47;24.33;;;;;;;6.80;100.00;102216.69;4939650;28;20874;-77
2023/04/16 04:17:37;;;;;;;48.70;23.75;;;;;;;6.79;100.00;102220.16;4954446;28;20074;-77
2023/04/16 04:20:05;;;;;;;62.05;25.15;;;;;;;6.78;100.00;102213.13;4961534;28;20049;-77
2023/04/16 04:22:32;;;;;;;72.78;29.40;;;;;;;6.75;100.00;102220.88;4974850;28;20057;-77
2023/04/16 04:24:59;;;;;;;52.63;25.35;;;;;;;6.74;100.00;102224.31;4979764;28;20065;-79
2023/04/16 04:27:29;;;;;;;51.20;19.95;;;;;;;6.71;100.00;102223.28;4972465;28;20054;-79
2023/04/16 04:29:56;;;;;;;44.10;22.55;;;;;;;6.68;100.00;102213.59;4974106;28;20058;-78
2023/04/16 04:32:24;;;;;;;58.80;27.73;;;;;;;6.66;100.00;102220.50;4933913;28;20050;-77
2023/04/16 04:34:51;;;;;;;50.25;23.00;;;;;;;6.63;100.00;102229.13;4987095;28;20066;-77
2023/04/16 04:37:19;;;;;;;43.38;22.13;;;;;;;6.59;100.00;102227.19;4955340;28;20062;-76
2023/04/16 04:39:47;;;;;;;44.75;23.95;;;;;;;6.59;100.00;102231.53;4984700;28;20046;-77
2023/04/16 04:42:18;;;;;;;50.65;25.77;;;;;;;6.59;100.00;102227.19;4969172;28;20150;-77
2023/04/16 04:44:46;;;;;;;52.00;23.60;;;;;;;6.59;100.00;102232.44;4957707;28;20039;-77
2023/04/16 04:47:14;;;;;;;49.50;24.35;;;;;;;6.58;100.00;102240.25;4938800;28;20074;-76
2023/04/16 04:49:41;;;;;;;52.03;25.08;;;;;;;6.56;100.00;102240.19;4972511;28;20062;-76
2023/04/16 04:52:08;;;;;;;50.55;25.77;;;;;;;6.56;100.00;102239.25;4979647;28;20058;-77
2023/04/16 04:54:40;;;;;;;61.10;25.30;;;;;;;6.52;100.00;102245.22;4961162;28;20059;-77
2023/04/16 04:57:07;;;;;;;51.08;23.63;;;;;;;6.49;100.00;102248.59;4976764;28;20054;-77
2023/04/16 04:59:35;;;;;;;49.20;22.38;;;;;;;6.44;100.00;102250.13;4982468;28;20100;-79
2023/04/16 05:02:02;;;;;;;46.65;22.80;;;;;;;6.40;100.00;102250.81;5002971;28;20054;-78
2023/04/16 05:04:30;;;;;;;53.92;23.63;;;;;;;6.38;100.00;102255.09;4910693;28;20045;-79
2023/04/16 05:06:57;;;;;;;45.35;22.20;;;;;;;6.35;100.00;102250.66;4989567;28;20050;-77
2023/04/16 05:09:25;;;;;;;46.80;21.55;;;;;;;6.35;100.00;102245.41;4962681;28;20054;-78
2023/04/16 05:11:52;;;;;;;49.80;24.20;;;;;;;6.35;100.00;102249.72;4954648;28;20073;-77
2023/04/16 05:14:19;;;;;;;41.22;21.60;;;;;;;6.33;100.00;102246.16;4956950;28;20699;-77
2023/04/16 05:16:47;;;;;;;40.78;22.05;;;;;;;6.35;100.00;102249.72;4970646;28;20058;-79
2023/04/16 05:19:15;;;;;;;40.35;22.48;;;;;;;6.37;100.00;102258.53;4953718;28;20058;-78
2023/04/16 05:21:43;;;;;;;42.60;22.95;;;;;;;6.38;100.00;102258.63;5006219;28;20413;-78
2023/04/16 05:24:10;;;;;;;46.05;24.70;;;;;;;6.41;100.00;102270.97;4978251;28;20055;-77
2023/04/16 05:26:40;;;;;;;34.30;21.27;;;;;;;6.42;100.00;102257.91;4975081;28;20069;-77
2023/04/16 05:29:08;;;;;;;56.28;25.75;;;;;;;6.42;100.00;102259.63;4976462;28;20120;-77
2023/04/16 05:31:35;;;;;;;39.13;22.42;;;;;;;6.42;100.00;102268.38;4982834;28;20058;-78
2023/04/16 05:34:03;;;;;;;39.92;23.08;;;;;;;6.46;100.00;102268.53;4956075;28;20054;-77
2023/04/16 05:36:30;;;;;;;40.60;22.10;;;;;;;6.49;100.00;102269.56;4980065;28;20414;-78
2023/04/16 05:38:57;;;;;;;37.50;23.25;;;;;;;6.51;100.00;102273.13;5004940;28;20065;-77
2023/04/16 05:41:24;;;;;;;35.28;21.65;;;;;;;6.53;100.00;102270.59;4982132;28;20034;-77
2023/04/16 05:43:52;;;;;;;42.95;23.05;;;;;;;6.56;100.00;102273.31;4987889;28;20054;-77
2023/04/16 05:46:19;;;;;;;42.30;22.42;;;;;;;6.59;100.00;102273.47;4974453;28;20064;-78
2023/04/16 05:48:47;;;;;;;43.50;23.25;;;;;;;6.64;100.00;102269.31;4986347;28;20061;-77
2023/04/16 05:51:14;;;;;;;31.33;20.30;;;;;;;6.68;100.00;102280.81;4940628;28;20042;-77
2023/04/16 05:53:41;;;;;;;38.58;22.17;;;;;;;6.70;100.00;102273.91;4967035;28;20046;-77
2023/04/16 05:56:09;;;;;;;40.67;22.35;;;;;;;6.75;100.00;102278.53;4966373;28;20050;-78
2023/04/16 05:58:36;;;;;;;46.00;22.35;;;;;;;6.79;100.00;102280.44;4985302;28;20058;-78
2023/04/16 06:01:03;;;;;;;35.92;19.05;;;;;;;6.85;100.00;102285.03;4976763;28;20106;-77
2023/04/16 06:03:30;;;;;;;36.50;21.23;;;;;;;6.88;100.00;102290.41;4999420;28;20050;-77
2023/04/16 06:05:58;;;;;;;33.95;19.75;;;;;;;6.94;100.00;102295.91;4940788;28;20401;-78
2023/04/16 06:08:25;;;;;;;34.65;20.52;;;;;;;6.98;100.00;102292.56;4984478;28;20062;-78
2023/04/16 06:10:53;;;;;;;32.00;20.65;;;;;;;7.02;100.00;102302.34;4965666;28;20046;-77
2023/04/16 06:13:20;;;;;;;49.53;23.65;;;;;;;7.06;100.00;102300.75;4966515;28;20748;-78
2023/04/16 06:15:47;;;;;;;42.65;21.55;;;;;;;7.09;100.00;102307.81;4975693;28;20061;-77
2023/04/16 06:18:15;;;;;;;39.53;20.95;;;;;;;7.14;100.00;102303.66;4986412;28;20042;-77
2023/04/16 06:20:42;;;;;;;37.33;19.80;;;;;;;7.16;100.00;102299.38;4939649;28;20050;-78
2023/04/16 06:23:09;;;;;;;34.95;19.95;;;;;;;7.19;100.00;102315.25;4985270;28;20051;-78
2023/04/16 06:25:37;;;;;;;29.60;18.80;;;;;;;7.22;100.00;102310.09;4981200;28;20065;-78
2023/04/16 06:28:04;;;;;;;39.67;21.13;;;;;;;7.26;100.00;102324.25;4975816;28;20121;-77
2023/04/16 06:30:32;;;;;;;41.15;20.80;;;;;;;7.29;100.00;102316.50;4989714;28;20443;-77
2023/04/16 06:32:59;;;;;;;46.28;21.13;;;;;;;7.32;100.00;102317.53;4994512;28;20050;-78
2023/04/16 06:35:26;;;;;;;37.28;21.58;;;;;;;7.36;100.00;102326.41;4961643;28;23097;-77
2023/04/16 06:37:54;;;;;;;47.03;24.83;;;;;;;7.41;100.00;102319.63;4999664;28;20066;-77
2023/04/16 06:40:21;;;;;;;54.78;23.55;;;;;;;7.45;100.00;102318.91;4997660;28;20066;-77
2023/04/16 06:42:49;;;;;;;48.42;24.15;;;;;;;7.51;100.00;102323.50;4981699;28;20444;-78
2023/04/16 06:45:16;;;;;;;45.47;21.70;;;;;;;7.56;100.00;102319.31;4966920;28;20049;-77
2023/04/16 06:47:43;;;;;;;47.30;22.30;;;;;;;7.59;100.00;102328.19;4976477;28;20062;-77
2023/04/16 06:50:10;;;;;;;44.58;20.35;;;;;;;7.66;100.00;102331.09;4942179;28;20057;-77
2023/04/16 06:52:38;;;;;;;43.13;21.98;;;;;;;7.70;100.00;102333.88;4969720;28;20069;-78
2023/04/16 06:55:08;;;;;;;41.88;23.27;;;;;;;7.75;100.00;102336.66;4991909;28;20418;-77
2023/04/16 06:57:36;;;;;;;41.08;21.10;;;;;;;7.79;100.00;102336.84;4988602;28;20049;-78
2023/04/16 07:00:04;;;;;;;40.30;22.00;;;;;;;7.85;100.00;102337.94;4991364;28;20046;-77
2023/04/16 07:02:31;;;;;;;40.92;21.10;;;;;;;7.89;100.00;102340.72;4952400;28;20066;-77
2023/04/16 07:04:59;;;;;;;43.05;20.92;;;;;;;7.95;100.00;102340.94;4963440;28;20050;-77
2023/04/16 07:07:26;;;;;;;46.58;21.13;;;;;;;8.00;100.00;102339.41;4954839;28;20042;-77
2023/04/16 07:09:53;;;;;;;39.55;19.80;;;;;;;8.06;100.00;102340.47;4990415;28;20052;-77
2023/04/16 07:12:21;;;;;;;46.45;20.50;;;;;;;8.11;100.00;102346.78;4996815;28;20046;-78
2023/04/16 07:14:49;;;;;;;39.55;20.92;;;;;;;8.15;100.00;102349.59;4976934;28;20061;-78
2023/04/16 07:17:16;;;;;;;42.95;19.70;;;;;;;8.19;100.00;102346.22;4947041;28;20058;-78
2023/04/16 07:19:44;;;;;;;46.10;19.75;;;;;;;8.24;100.00;102353.38;4956221;28;20046;-77
2023/04/16 07:22:11;;;;;;;38.70;19.98;;;;;;;8.28;100.00;102350.94;4927518;28;20046;-77
2023/04/16 07:24:38;;;;;;;46.90;20.90;;;;;;;8.32;100.00;102352.84;5002453;28;20531;-77
2023/04/16 07:27:05;;;;;;;47.05;20.75;;;;;;;8.36;100.00;102354.72;4977849;28;20060;-77
2023/04/16 07:29:33;;;;;;;50.75;22.35;;;;;;;8.41;100.00;102354.88;4985672;28;20073;-77
2023/04/16 07:32:00;;;;;;;39.75;20.00;;;;;;;8.48;100.00;102356.94;4985648;28;20046;-77
2023/04/16 07:34:27;;;;;;;48.90;19.48;;;;;;;8.56;100.00;102359.81;4954558;28;20416;-77
2023/04/16 07:36:55;;;;;;;39.58;19.00;;;;;;;8.65;100.00;102357.53;4937665;28;22874;-77
2023/04/16 07:39:22;;;;;;;33.40;19.00;;;;;;;8.72;100.00;102354.28;4971434;28;20068;-77
2023/04/16 07:41:49;;;;;;;38.75;20.15;;;;;;;8.82;100.00;102363.38;4985326;28;20520;-77
2023/04/16 07:44:16;;;;;;;40.50;20.08;;;;;;;8.92;100.00;102357.63;4955333;28;20069;-77
2023/04/16 07:46:44;;;;;;;35.30;17.52;;;;;;;9.04;100.00;102361.50;4985736;28;20053;-77
2023/04/16 07:49:14;;;;;;;39.17;19.13;;;;;;;9.14;100.00;102364.47;4972674;28;20338;-78
2023/04/16 07:51:41;;;;;;;37.30;18.15;;;;;;;9.25;100.00;102366.56;4986058;28;20057;-78
2023/04/16 07:54:09;;;;;;;39.92;18.33;;;;;;;9.34;100.00;102370.41;4926924;28;20046;-77
2023/04/16 07:56:37;;;;;;;34.30;17.77;;;;;;;9.47;100.00;102365.50;4973041;28;20050;-78
2023/04/16 07:59:04;;;;;;;33.67;17.92;;;;;;;9.53;100.00;102373.63;4980914;28;20054;-78
2023/04/16 08:01:48;;;;;;;39.72;17.33;;;;;;;9.61;100.00;102368.59;4986440;28;20057;-77
2023/04/16 08:04:21;;;;;;;34.42;17.48;;;;;;;9.69;100.00;102367.09;4972448;28;20057;-78
2023/04/16 08:06:50;;;;;;;30.38;16.05;;;;;;;9.80;100.00;102375.34;4976793;28;20050;-77
2023/04/16 08:09:19;;;;;;;35.40;17.08;;;;;;;9.87;100.00;102378.19;4967332;28;20045;-78
2023/04/16 08:11:48;;;;;;;31.95;16.70;;;;;;;9.95;100.00;102373.16;4974559;28;20046;-77
2023/04/16 08:14:16;;;;;;;31.30;15.73;;;;;;;10.03;100.00;102371.63;4971660;28;20057;-77
2023/04/16 08:16:44;;;;;;;28.00;15.43;;;;;;;10.13;100.00;102372.81;4977013;28;20045;-77
2023/04/16 08:19:11;;;;;;;24.65;15.32;;;;;;;10.18;100.00;102376.47;4997123;28;20042;-78
2023/04/16 08:21:39;;;;;;;23.30;14.75;;;;;;;10.20;100.00;102385.31;4972504;28;20057;-77
2023/04/16 08:24:06;;;;;;;34.10;15.15;;;;;;;10.26;100.00;102381.97;4924364;28;20037;-77
2023/04/16 08:26:34;;;;;;;27.55;15.02;;;;;;;10.32;100.00;102382.16;5002430;28;20046;-77
2023/04/16 08:29:01;;;;;;;24.70;12.88;;;;;;;10.42;100.00;102385.97;4978784;28;20057;-77
2023/04/16 08:31:28;;;;;;;29.75;14.55;;;;;;;10.52;100.00;102375.72;4964325;28;20417;-77
2023/04/16 08:33:56;;;;;;;23.83;14.45;;;;;;;10.64;100.00;102382.19;4973123;28;20045;-77
2023/04/16 08:36:23;;;;;;;22.30;13.23;;;;;;;10.76;100.00;102381.66;4986957;28;20049;-77
2023/04/16 08:38:51;;;;;;;25.20;13.75;;;;;;;10.87;100.00;102394.25;4982297;28;20510;-78
2023/04/16 08:41:22;;;;;;;25.17;14.23;;;;;;;10.95;100.00;102391.81;4966791;28;20113;-78
2023/04/16 08:43:54;;;;;;;22.65;13.18;;;;;;;11.03;100.00;102405.22;4985182;28;20050;-76
2023/04/16 08:46:24;;;;;;;25.50;13.93;;;;;;;11.09;100.00;102394.81;4989384;28;20049;-78
2023/04/16 08:48:56;;;;;;;23.45;13.18;;;;;;;11.18;100.00;102400.31;4989315;28;20046;-78
2023/04/16 08:51:28;;;;;;;22.83;13.77;;;;;;;11.25;100.00;102404.03;4972624;28;20056;-78
2023/04/16 08:54:13;;;;;;;22.35;13.00;;;;;;;11.29;100.00;102405.88;4968014;28;20045;-75
2023/04/16 08:56:41;;;;;;;24.80;13.70;;;;;;;11.35;100.00;102411.31;4982622;28;20053;-78
2023/04/16 08:59:09;;;;;;;25.33;13.35;;;;;;;11.44;100.00;102405.38;4968502;28;20049;-77
2023/04/16 09:01:38;;;;;;;27.08;14.73;;;;;;;11.49;100.00;102407.28;4992657;28;20038;-78
2023/04/16 09:04:06;;;;;;;19.80;12.15;;;;;;;11.54;100.00;102412.66;4991017;28;20049;-77
2023/04/16 09:06:35;;;;;;;21.90;12.38;;;;;;;11.64;100.00;102413.75;4978960;28;20054;-77
2023/04/16 09:09:04;;;;;;;21.13;12.68;;;;;;;11.70;100.00;102412.16;4996979;28;20046;-77
2023/04/16 09:11:32;;;;;;;21.42;13.02;;;;;;;11.76;100.00;102408.78;4936136;28;20117;-77
2023/04/16 09:13:59;;;;;;;23.05;13.55;;;;;;;11.84;100.00;102419.53;4990649;28;20046;-77
2023/04/16 09:16:32;;;;;;;19.95;12.30;;;;;;;11.92;100.00;102414.44;4999622;28;20038;-77
2023/04/16 09:18:59;;;;;;;20.35;11.88;;;;;;;11.97;100.00;102418.09;4967038;28;20057;-78
2023/04/16 09:21:27;;;;;;;18.48;11.50;;;;;;;12.00;100.00;102419.06;4961026;28;20046;-78
2023/04/16 09:23:54;;;;;;;20.90;12.57;;;;;;;12.08;100.00;102425.38;4994342;28;20137;-78
2023/04/16 09:26:22;;;;;;;21.20;12.40;;;;;;;12.14;100.00;102426.41;4963859;28;20049;-78
2023/04/16 09:28:50;;;;;;;22.42;12.00;;;;;;;12.21;100.00;102423.00;4999664;28;20042;-76
2023/04/16 09:31:18;;;;;;;18.25;12.45;;;;;;;12.26;100.00;102426.63;4985158;28;20790;-78
2023/04/16 09:34:06;;;;;;;25.65;13.35;;;;;;;12.32;100.00;102423.25;4969381;28;20061;-77
2023/04/16 09:36:35;;;;;;;21.30;13.00;;;;;;;12.32;100.00;102426.75;4995665;28;20045;-78
2023/04/16 09:39:03;;;;;;;20.25;11.85;;;;;;;12.31;100.00;102425.00;4957901;28;20076;-77
2023/04/16 09:41:34;;;;;;;21.52;12.77;;;;;;;12.33;100.00;102427.69;4938779;28;20053;-76
2023/04/16 09:44:03;;;;;;;25.02;12.55;;;;;;;12.38;100.00;102437.50;4998676;28;20068;-78
2023/04/16 09:46:33;;;;;;;22.45;12.05;;;;;;;12.40;100.00;102435.78;4996279;28;20041;-77
2023/04/16 09:49:14;;;;;;;21.25;12.18;;;;;;;12.48;100.00;102430.63;4994992;28;20046;-77
2023/04/16 09:51:44;;;;;;;21.50;10.93;;;;;;;12.53;100.00;102436.00;4972883;28;20054;-74
2023/04/16 09:54:11;;;;;;;21.27;10.52;;;;;;;12.57;100.00;102430.81;4981095;28;20049;-75
2023/04/16 09:56:44;;;;;;;25.60;12.07;;;;;;;12.61;100.00;102434.44;5001839;28;20069;-77
2023/04/16 09:59:18;;;;;;;22.35;12.02;;;;;;;12.67;100.00;102439.84;4968352;28;20485;-76
2023/04/16 10:01:48;;;;;;;22.88;11.65;;;;;;;12.70;100.00;102434.59;4977103;28;20063;-76
2023/04/16 10:04:15;;;;;;;21.40;12.63;;;;;;;12.77;100.00;102436.50;4976561;28;20473;-77
2023/04/16 10:06:44;;;;;;;24.55;11.18;;;;;;;12.84;100.00;102434.88;4977220;28;20049;-76
2023/04/16 10:09:11;;;;;;;23.45;11.55;;;;;;;12.90;100.00;102442.03;4971665;28;20847;-75
2023/04/16 10:11:39;;;;;;;21.48;11.65;;;;;;;12.98;100.00;102441.31;4967419;28;20046;-76
2023/04/16 10:14:08;;;;;;;21.98;11.52;;;;;;;13.04;100.00;102437.88;4941967;28;20056;-74
2023/04/16 10:16:38;;;;;;;19.67;11.02;;;;;;;13.05;100.00;102437.03;4982096;28;20096;-74
2023/04/16 10:19:06;;;;;;;21.58;10.80;;;;;;;13.12;100.00;102443.31;4972537;28;20051;-74
2023/04/16 10:21:34;;;;;;;20.27;10.80;;;;;;;13.16;100.00;102430.19;4970126;28;20048;-74
2023/04/16 10:24:01;;;;;;;15.90;10.15;;;;;;;13.22;100.00;102429.38;4980257;28;20080;-74
2023/04/16 10:26:29;;;;;;;22.15;12.40;;;;;;;13.26;100.00;102434.75;4987139;28;20052;-74
2023/04/16 10:28:57;;;;;;;19.10;10.48;;;;;;;13.29;100.00;102430.38;4956910;28;20049;-74
2023/04/16 10:31:26;;;;;;;18.45;10.80;;;;;;;13.34;100.00;102432.25;4987464;28;20493;-76
2023/04/16 10:33:55;;;;;;;22.70;10.77;;;;;;;13.39;100.00;102433.25;4983347;28;20042;-74
2023/04/16 10:36:25;;;;;;;20.70;10.18;;;;;;;13.41;100.00;102428.88;4953392;28;20493;-75
2023/04/16 10:38:57;;;;;;;17.13;9.55;;;;;;;13.43;100.00;102442.13;4982568;28;20050;-74
2023/04/16 10:41:25;;;;;;;21.40;9.40;;;;;;;13.42;100.00;102435.97;4987051;28;20047;-75
2023/04/16 10:44:08;;;;;;;20.50;10.02;;;;;;;13.54;100.00;102437.03;4949657;28;20489;-74
2023/04/16 10:46:38;;;;;;;18.75;10.73;;;;;;;13.59;100.00;102440.63;4993428;28;20049;-75
2023/04/16 10:49:14;;;;;;;19.30;10.38;;;;;;;13.61;100.00;102437.16;5002854;28;20046;-75
2023/04/16 10:51:41;;;;;;;23.20;11.50;;;;;;;13.63;100.00;102426.59;4995028;28;20095;-74
2023/04/16 10:54:10;;;;;;;23.17;11.20;;;;;;;13.68;100.00;102435.47;4992579;28;20054;-74
2023/04/16 10:56:37;;;;;;;18.33;11.70;;;;;;;13.71;100.00;102426.69;4957974;28;20406;-75
2023/04/16 10:59:06;;;;;;;21.08;10.05;;;;;;;13.73;100.00;102423.19;4984234;28;20054;-75
2023/04/16 11:01:40;;;;;;;20.88;12.20;;;;;;;13.74;100.00;102426.72;4962276;28;20045;-75
2023/04/16 11:04:20;;;;;;;22.15;11.02;;;;;;;13.75;100.00;102429.41;4967600;28;20081;-75
2023/04/16 11:07:06;;;;;;;17.40;11.85;;;;;;;13.73;100.00;102427.63;4974083;28;20057;-75
2023/04/16 11:09:46;;;;;;;22.15;12.45;;;;;;;13.69;100.00;102431.97;4995968;28;20069;-75
2023/04/16 11:12:15;;;;;;;18.05;11.45;;;;;;;13.64;100.00;102429.22;4969299;28;20052;-75